createdAt,value
2022-10-06T00:00:28.047Z,63.38
2022-10-06T00:01:28.095Z,63.38
2022-10-06T00:02:28.113Z,63.58
2022-10-06T00:03:28.019Z,63.48
2022-10-06T00:04:28.188Z,63.48
2022-10-06T00:05:27.987Z,63.48
2022-10-06T00:06:28.022Z,63.48
2022-10-06T00:07:27.984Z,63.78
2022-10-06T00:08:28.168Z,63.68
2022-10-06T00:09:28.093Z,63.58
2022-10-06T00:10:28.001Z,63.48
2022-10-06T00:11:27.913Z,63.58
2022-10-06T00:12:27.897Z,63.58
2022-10-06T00:13:27.877Z,63.78
2022-10-06T00:14:27.873Z,63.68
2022-10-06T00:15:28.659Z,63.98
2022-10-06T00:16:27.874Z,63.78
2022-10-06T00:17:27.870Z,63.98
2022-10-06T00:18:28.096Z,64.18
2022-10-06T00:19:27.796Z,63.88
2022-10-06T00:20:27.777Z,63.88
2022-10-06T00:21:27.869Z,64.07
2022-10-06T00:22:27.770Z,63.78
2022-10-06T00:23:27.743Z,63.98
2022-10-06T00:24:27.722Z,64.28
2022-10-06T00:25:27.720Z,64.07
2022-10-06T00:26:27.708Z,64.18
2022-10-06T00:27:27.888Z,63.88
2022-10-06T00:28:28.280Z,63.88
2022-10-06T00:29:27.748Z,63.98
2022-10-06T00:30:27.655Z,64.37
2022-10-06T00:31:27.658Z,64.07
2022-10-06T00:32:27.612Z,64.28
2022-10-06T00:33:27.764Z,64.37
2022-10-06T00:34:27.645Z,64.18
2022-10-06T00:35:27.655Z,64.18
2022-10-06T00:36:27.575Z,64.37
2022-10-06T00:37:27.551Z,64.18
2022-10-06T00:38:27.877Z,63.98
2022-10-06T00:39:27.724Z,64.07
2022-10-06T00:40:27.564Z,64.28
2022-10-06T00:41:27.495Z,64.01
2022-10-06T00:42:27.478Z,64.28
2022-10-06T00:43:27.476Z,64.07
2022-10-06T00:44:27.455Z,64.11
2022-10-06T00:45:27.598Z,64.28
2022-10-06T00:46:27.534Z,64.58
2022-10-06T00:47:27.413Z,64.51
2022-10-06T00:48:27.705Z,64.51
2022-10-06T00:49:27.393Z,64.21
2022-10-06T00:50:27.376Z,64.18
2022-10-06T00:51:27.458Z,64.51
2022-10-06T00:52:27.371Z,64.31
2022-10-06T00:53:27.323Z,64.31
2022-10-06T00:54:27.334Z,64.31
2022-10-06T00:55:27.296Z,64.28
2022-10-06T00:56:27.291Z,64.31
2022-10-06T00:57:27.420Z,64.21
2022-10-06T00:58:27.684Z,64.41
2022-10-06T00:59:27.244Z,64.51
2022-10-06T01:00:27.315Z,64.31
2022-10-06T01:01:27.235Z,64.41
2022-10-06T01:02:27.286Z,64.51
2022-10-06T01:03:27.407Z,64.41
2022-10-06T01:04:27.206Z,64.51
2022-10-06T01:05:27.169Z,64.41
2022-10-06T01:06:27.186Z,64.31
2022-10-06T01:07:27.142Z,64.31
2022-10-06T01:08:27.621Z,64.51
2022-10-06T01:09:27.254Z,64.21
2022-10-06T01:10:27.135Z,64.61
2022-10-06T01:11:27.082Z,64.31
2022-10-06T01:12:27.084Z,64.31
2022-10-06T01:13:27.082Z,64.21
2022-10-06T01:14:27.036Z,64.51
2022-10-06T01:15:27.125Z,64.51
2022-10-06T01:16:27.126Z,64.31
2022-10-06T01:17:27.001Z,64.11
2022-10-06T01:18:27.422Z,64.31
2022-10-06T01:19:26.955Z,64.21
2022-10-06T01:20:26.995Z,64.31
2022-10-06T01:21:27.075Z,64.51
2022-10-06T01:22:26.973Z,64.21
2022-10-06T01:23:26.930Z,64.21
2022-10-06T01:24:26.903Z,64.21
2022-10-06T01:25:26.881Z,64.11
2022-10-06T01:26:26.888Z,64.31
2022-10-06T01:27:27.016Z,64.21
2022-10-06T01:28:27.631Z,64.21
2022-10-06T01:29:26.882Z,64.51
2022-10-06T01:30:26.824Z,64.41
2022-10-06T01:31:26.863Z,64.31
2022-10-06T01:32:26.800Z,64.21
2022-10-06T01:33:26.931Z,64.11
2022-10-06T01:34:26.790Z,64.11
2022-10-06T01:35:26.765Z,64.31
2022-10-06T01:36:26.773Z,64.31
2022-10-06T01:37:26.729Z,64.31
2022-10-06T01:38:27.336Z,64.21
2022-10-06T01:39:26.871Z,64.31
2022-10-06T01:40:26.864Z,64.11
2022-10-06T01:41:26.677Z,64.21
2022-10-06T01:42:26.695Z,64.11
2022-10-06T01:43:26.652Z,64.21
2022-10-06T01:44:26.665Z,64.21
2022-10-06T01:45:26.802Z,64.01
2022-10-06T01:46:26.707Z,64.11
2022-10-06T01:47:26.617Z,64.11
2022-10-06T01:48:27.140Z,64.01
2022-10-06T01:49:26.631Z,64.11
2022-10-06T01:50:26.608Z,64.41
2022-10-06T01:51:26.648Z,64.31
2022-10-06T01:52:26.574Z,64.11
2022-10-06T01:53:26.513Z,64.21
2022-10-06T01:54:26.499Z,64.11
2022-10-06T01:55:26.475Z,64.11
2022-10-06T01:56:26.464Z,64.11
2022-10-06T01:57:26.679Z,64.11
2022-10-06T01:58:26.857Z,64.01
2022-10-06T01:59:26.468Z,64.01
2022-10-06T02:00:26.415Z,63.91
2022-10-06T02:01:26.444Z,63.91
2022-10-06T02:02:26.405Z,64.01
2022-10-06T02:03:26.530Z,64.01
2022-10-06T02:04:26.477Z,64.01
2022-10-06T02:05:26.337Z,64.01
2022-10-06T02:06:26.413Z,64.01
2022-10-06T02:07:26.320Z,63.91
2022-10-06T02:08:26.673Z,64.01
2022-10-06T02:09:26.451Z,64.01
2022-10-06T02:10:26.288Z,63.91
2022-10-06T02:11:26.258Z,63.91
2022-10-06T02:12:26.563Z,63.81
2022-10-06T02:13:26.248Z,63.71
2022-10-06T02:14:26.211Z,63.71
2022-10-06T02:15:26.465Z,63.91
2022-10-06T02:16:26.309Z,63.91
2022-10-06T02:17:26.189Z,63.91
2022-10-06T02:18:27.527Z,63.91
2022-10-06T02:19:26.178Z,63.91
2022-10-06T02:20:26.134Z,63.81
2022-10-06T02:21:26.366Z,63.91
2022-10-06T02:22:26.136Z,63.91
2022-10-06T02:23:26.100Z,63.81
2022-10-06T02:24:26.074Z,63.91
2022-10-06T02:25:26.085Z,63.81
2022-10-06T02:26:26.060Z,63.81
2022-10-06T02:27:26.124Z,63.81
2022-10-06T02:28:26.547Z,63.81
2022-10-06T02:29:26.012Z,63.81
2022-10-06T02:30:26.018Z,63.81
2022-10-06T02:31:26.084Z,63.91
2022-10-06T02:32:25.963Z,63.71
2022-10-06T02:33:26.048Z,63.91
2022-10-06T02:34:25.972Z,63.81
2022-10-06T02:35:25.933Z,63.71
2022-10-06T02:36:25.919Z,63.71
2022-10-06T02:37:25.908Z,63.61
2022-10-06T02:38:26.241Z,63.71
2022-10-06T02:39:26.146Z,63.61
2022-10-06T02:40:25.893Z,63.51
2022-10-06T02:41:25.841Z,63.71
2022-10-06T02:42:25.830Z,63.71
2022-10-06T02:43:25.831Z,63.61
2022-10-06T02:44:25.811Z,63.51
2022-10-06T02:45:25.894Z,63.61
2022-10-06T02:46:26.016Z,63.61
2022-10-06T02:47:25.773Z,63.71
2022-10-06T02:48:26.162Z,63.61
2022-10-06T02:49:25.740Z,63.51
2022-10-06T02:50:25.729Z,63.51
2022-10-06T02:51:25.856Z,63.51
2022-10-06T02:52:25.711Z,63.41
2022-10-06T02:53:25.691Z,63.41
2022-10-06T02:54:25.688Z,63.44
2022-10-06T02:55:25.646Z,63.41
2022-10-06T02:56:25.651Z,63.51
2022-10-06T02:57:25.862Z,63.41
2022-10-06T02:58:26.139Z,63.44
2022-10-06T02:59:25.676Z,63.54
2022-10-06T03:00:26.374Z,63.51
2022-10-06T03:01:25.658Z,63.41
2022-10-06T03:02:25.683Z,63.41
2022-10-06T03:03:25.716Z,63.41
2022-10-06T03:04:25.602Z,63.54
2022-10-06T03:05:25.955Z,63.44
2022-10-06T03:06:25.514Z,63.44
2022-10-06T03:07:25.491Z,63.41
2022-10-06T03:08:25.733Z,63.41
2022-10-06T03:09:25.713Z,63.41
2022-10-06T03:10:25.512Z,63.34
2022-10-06T03:11:25.450Z,63.34
2022-10-06T03:12:25.437Z,63.44
2022-10-06T03:13:25.421Z,63.44
2022-10-06T03:14:26.087Z,63.44
2022-10-06T03:15:25.733Z,63.44
2022-10-06T03:16:25.489Z,63.44
2022-10-06T03:17:25.382Z,63.44
2022-10-06T03:18:25.719Z,63.44
2022-10-06T03:19:25.506Z,63.34
2022-10-06T03:20:25.482Z,63.44
2022-10-06T03:21:25.390Z,63.34
2022-10-06T03:22:25.314Z,63.41
2022-10-06T03:23:25.261Z,63.34
2022-10-06T03:24:25.384Z,63.34
2022-10-06T03:25:25.274Z,63.24
2022-10-06T03:26:25.219Z,63.34
2022-10-06T03:27:25.463Z,63.24
2022-10-06T03:28:25.523Z,63.44
2022-10-06T03:29:25.408Z,63.34
2022-10-06T03:30:25.188Z,63.34
2022-10-06T03:31:25.201Z,63.34
2022-10-06T03:32:25.155Z,63.34
2022-10-06T03:33:25.287Z,63.34
2022-10-06T03:34:25.263Z,63.24
2022-10-06T03:35:25.344Z,63.24
2022-10-06T03:36:25.129Z,63.24
2022-10-06T03:37:25.086Z,63.24
2022-10-06T03:38:25.416Z,63.34
2022-10-06T03:39:25.227Z,63.34
2022-10-06T03:40:25.083Z,63.34
2022-10-06T03:41:25.025Z,63.34
2022-10-06T03:42:25.010Z,63.34
2022-10-06T03:43:25.001Z,63.24
2022-10-06T03:44:24.982Z,63.44
2022-10-06T03:45:25.143Z,63.24
2022-10-06T03:46:25.379Z,63.34
2022-10-06T03:47:24.944Z,63.24
2022-10-06T03:48:24.942Z,63.14
2022-10-06T03:49:24.915Z,63.34
2022-10-06T03:50:24.899Z,63.34
2022-10-06T03:51:25.107Z,63.24
2022-10-06T03:52:26.113Z,63.34
2022-10-06T03:53:24.895Z,63.34
2022-10-06T03:54:24.865Z,63.24
2022-10-06T03:55:25.050Z,63.24
2022-10-06T03:56:24.847Z,63.34
2022-10-06T03:57:24.823Z,63.34
2022-10-06T03:58:24.830Z,63.24
2022-10-06T03:59:24.789Z,63.24
2022-10-06T04:00:24.767Z,63.34
2022-10-06T04:01:26.641Z,63.34
2022-10-06T04:02:24.778Z,63.24
2022-10-06T04:03:24.739Z,63.34
2022-10-06T04:04:24.760Z,63.34
2022-10-06T04:05:24.699Z,63.44
2022-10-06T04:06:24.957Z,63.24
2022-10-06T04:07:24.818Z,63.34
2022-10-06T04:08:24.645Z,63.24
2022-10-06T04:09:24.644Z,63.34
2022-10-06T04:10:24.859Z,63.24
2022-10-06T04:11:25.386Z,63.34
2022-10-06T04:12:24.605Z,63.24
2022-10-06T04:13:24.769Z,63.24
2022-10-06T04:14:24.576Z,63.24
2022-10-06T04:15:24.587Z,63.24
2022-10-06T04:16:24.659Z,63.34
2022-10-06T04:17:24.573Z,63.34
2022-10-06T04:18:24.553Z,63.14
2022-10-06T04:19:24.674Z,63.24
2022-10-06T04:20:24.485Z,63.14
2022-10-06T04:21:24.502Z,63.14
2022-10-06T04:22:24.535Z,63.24
2022-10-06T04:23:24.473Z,63.24
2022-10-06T04:24:24.490Z,63.14
2022-10-06T04:25:24.584Z,63.24
2022-10-06T04:26:24.470Z,63.24
2022-10-06T04:27:24.448Z,63.24
2022-10-06T04:28:24.494Z,63.14
2022-10-06T04:29:24.411Z,63.14
2022-10-06T04:30:24.355Z,63.14
2022-10-06T04:31:24.497Z,63.14
2022-10-06T04:32:24.330Z,63.14
2022-10-06T04:33:24.357Z,63.14
2022-10-06T04:34:24.332Z,63.14
2022-10-06T04:35:24.338Z,63.14
2022-10-06T04:36:24.347Z,63.14
2022-10-06T04:37:24.496Z,63.04
2022-10-06T04:38:24.340Z,63.14
2022-10-06T04:39:24.325Z,62.84
2022-10-06T04:40:24.302Z,62.84
2022-10-06T04:41:24.207Z,62.84
2022-10-06T04:42:24.210Z,62.84
2022-10-06T04:43:24.289Z,62.94
2022-10-06T04:44:24.159Z,63.04
2022-10-06T04:45:24.161Z,62.94
2022-10-06T04:46:42.106Z,62.94
2022-10-06T04:47:25.125Z,63.24
2022-10-06T04:48:24.167Z,63.34
2022-10-06T04:49:24.470Z,63.17
2022-10-06T04:50:24.152Z,63.34
2022-10-06T04:51:24.856Z,63.07
2022-10-06T04:52:24.127Z,63.04
2022-10-06T04:53:24.052Z,63.14
2022-10-06T04:54:24.020Z,63.17
2022-10-06T04:55:24.183Z,63.27
2022-10-06T04:56:24.016Z,63.37
2022-10-06T04:57:23.989Z,63.37
2022-10-06T04:58:24.165Z,63.47
2022-10-06T04:59:23.968Z,63.27
2022-10-06T05:00:23.943Z,63.44
2022-10-06T05:01:24.104Z,63.37
2022-10-06T05:02:23.987Z,63.37
2022-10-06T05:03:23.907Z,63.37
2022-10-06T05:04:23.935Z,63.37
2022-10-06T05:05:23.890Z,63.37
2022-10-06T05:06:23.901Z,63.47
2022-10-06T05:07:23.965Z,63.57
2022-10-06T05:08:23.828Z,63.67
2022-10-06T05:09:23.830Z,63.67
2022-10-06T05:10:23.855Z,63.67
2022-10-06T05:11:25.968Z,63.77
2022-10-06T05:12:23.816Z,63.67
2022-10-06T05:13:23.868Z,63.67
2022-10-06T05:14:23.750Z,63.57
2022-10-06T05:15:23.867Z,63.57
2022-10-06T05:16:23.826Z,63.57
2022-10-06T05:17:23.749Z,63.57
2022-10-06T05:18:23.692Z,63.57
2022-10-06T05:19:23.789Z,63.44
2022-10-06T05:20:23.688Z,63.57
2022-10-06T05:21:23.675Z,63.57
2022-10-06T05:22:23.669Z,63.57
2022-10-06T05:23:23.637Z,63.67
2022-10-06T05:24:23.628Z,63.67
2022-10-06T05:25:23.822Z,63.97
2022-10-06T05:26:23.590Z,63.67
2022-10-06T05:27:23.586Z,63.97
2022-10-06T05:28:25.372Z,64.07
2022-10-06T05:29:23.554Z,64.07
2022-10-06T05:30:23.530Z,64.47
2022-10-06T05:31:23.800Z,64.07
2022-10-06T05:32:23.503Z,64.27
2022-10-06T05:33:23.493Z,64.17
2022-10-06T05:34:23.723Z,64.07
2022-10-06T05:35:23.480Z,64.17
2022-10-06T05:36:23.455Z,64.27
2022-10-06T05:37:23.533Z,64.07
2022-10-06T05:38:23.422Z,64.17
2022-10-06T05:39:23.411Z,64.37
2022-10-06T05:40:23.450Z,64.17
2022-10-06T05:41:23.401Z,63.97
2022-10-06T05:42:27.500Z,64.17
2022-10-06T05:43:25.126Z,64.17
2022-10-06T05:44:23.342Z,64.17
2022-10-06T05:45:23.381Z,63.77
2022-10-06T05:46:23.388Z,63.77
2022-10-06T05:47:23.313Z,63.87
2022-10-06T05:48:23.284Z,63.97
2022-10-06T05:49:23.434Z,63.97
2022-10-06T05:50:23.252Z,63.77
2022-10-06T05:51:27.933Z,63.97
2022-10-06T05:52:24.312Z,63.97
2022-10-06T05:53:23.227Z,63.77
2022-10-06T05:54:23.198Z,63.67
2022-10-06T05:55:23.374Z,63.57
2022-10-06T05:56:23.176Z,63.67
2022-10-06T05:57:23.156Z,63.67
2022-10-06T05:58:23.231Z,63.57
2022-10-06T05:59:23.135Z,63.57
2022-10-06T06:00:23.124Z,63.67
2022-10-06T06:01:23.235Z,63.67
2022-10-06T06:02:23.147Z,63.57
2022-10-06T06:03:23.158Z,63.47
2022-10-06T06:04:23.141Z,63.67
2022-10-06T06:05:23.066Z,63.57
2022-10-06T06:06:23.071Z,63.47
2022-10-06T06:07:23.194Z,63.47
2022-10-06T06:08:23.034Z,63.47
2022-10-06T06:09:23.000Z,63.27
2022-10-06T06:10:23.068Z,63.57
2022-10-06T06:11:23.063Z,63.57
2022-10-06T06:12:22.974Z,63.47
2022-10-06T06:13:23.096Z,63.47
2022-10-06T06:14:22.917Z,63.37
2022-10-06T06:15:22.957Z,63.47
2022-10-06T06:16:22.970Z,64.07
2022-10-06T06:17:22.912Z,63.77
2022-10-06T06:18:22.882Z,63.77
2022-10-06T06:19:25.960Z,63.77
2022-10-06T06:20:24.803Z,63.87
2022-10-06T06:21:22.842Z,64.07
2022-10-06T06:22:22.915Z,64.07
2022-10-06T06:23:22.806Z,64.27
2022-10-06T06:24:22.796Z,63.97
2022-10-06T06:25:23.096Z,64.07
2022-10-06T06:26:22.811Z,63.97
2022-10-06T06:27:22.776Z,63.97
2022-10-06T06:28:22.841Z,64.07
2022-10-06T06:29:22.731Z,64.17
2022-10-06T06:30:22.733Z,64.17
2022-10-06T06:31:22.911Z,64.27
2022-10-06T06:32:22.684Z,64.27
2022-10-06T06:33:22.677Z,64.47
2022-10-06T06:34:22.705Z,64.27
2022-10-06T06:35:22.678Z,64.24
2022-10-06T06:36:22.666Z,64.44
2022-10-06T06:37:22.774Z,64.34
2022-10-06T06:38:22.601Z,64.34
2022-10-06T06:39:22.594Z,64.34
2022-10-06T06:40:22.648Z,64.34
2022-10-06T06:41:22.563Z,64.24
2022-10-06T06:42:22.643Z,64.24
2022-10-06T06:43:23.205Z,64.24
2022-10-06T06:44:22.522Z,64.24
2022-10-06T06:45:23.075Z,64.24
2022-10-06T06:46:22.700Z,64.24
2022-10-06T06:47:24.438Z,64.14
2022-10-06T06:48:22.500Z,64.24
2022-10-06T06:49:22.665Z,64.14
2022-10-06T06:50:22.447Z,64.04
2022-10-06T06:51:22.516Z,63.94
2022-10-06T06:52:22.473Z,64.04
2022-10-06T06:53:22.406Z,63.94
2022-10-06T06:54:22.416Z,63.94
2022-10-06T06:55:22.519Z,63.84
2022-10-06T06:56:22.370Z,63.94
2022-10-06T06:57:22.351Z,63.94
2022-10-06T06:58:22.348Z,63.84
2022-10-06T06:59:22.332Z,63.84
2022-10-06T07:00:22.338Z,63.84
2022-10-06T07:01:22.413Z,63.84
2022-10-06T07:02:22.316Z,63.84
2022-10-06T07:03:45.278Z,63.84
2022-10-06T07:04:23.429Z,63.84
2022-10-06T07:05:22.245Z,63.84
2022-10-06T07:06:27.141Z,63.74
2022-10-06T07:07:23.284Z,63.84
2022-10-06T07:08:22.198Z,64.04
2022-10-06T07:09:22.183Z,63.74
2022-10-06T07:10:22.207Z,63.74
2022-10-06T07:11:22.187Z,63.84
2022-10-06T07:12:22.146Z,63.64
2022-10-06T07:13:22.385Z,63.61
2022-10-06T07:14:22.116Z,63.81
2022-10-06T07:15:22.095Z,63.81
2022-10-06T07:16:22.123Z,63.51
2022-10-06T07:17:22.105Z,63.21
2022-10-06T07:18:22.062Z,63.41
2022-10-06T07:19:24.766Z,63.41
2022-10-06T07:20:22.041Z,63.51
2022-10-06T07:21:22.016Z,63.81
2022-10-06T07:22:22.034Z,63.91
2022-10-06T07:23:21.988Z,64.01
2022-10-06T07:24:22.004Z,64.01
2022-10-06T07:25:25.615Z,63.91
2022-10-06T07:26:21.961Z,64.01
2022-10-06T07:27:21.930Z,63.91
2022-10-06T07:28:22.012Z,63.91
2022-10-06T07:29:21.904Z,64.11
2022-10-06T07:30:21.940Z,64.11
2022-10-06T07:31:21.991Z,64.01
2022-10-06T07:32:21.899Z,64.11
2022-10-06T07:33:21.852Z,64.11
2022-10-06T07:34:21.873Z,64.11
2022-10-06T07:35:21.824Z,64.01
2022-10-06T07:36:21.808Z,64.01
2022-10-06T07:37:21.887Z,64.11
2022-10-06T07:38:21.803Z,63.91
2022-10-06T07:39:21.761Z,64.11
2022-10-06T07:40:22.086Z,64.11
2022-10-06T07:41:21.736Z,64.01
2022-10-06T07:42:21.725Z,64.01
2022-10-06T07:43:21.809Z,64.07
2022-10-06T07:44:21.704Z,64.11
2022-10-06T07:45:21.695Z,64.11
2022-10-06T07:46:22.581Z,64.11
2022-10-06T07:47:21.657Z,64.07
2022-10-06T07:48:21.654Z,64.11
2022-10-06T07:49:21.723Z,64.11
2022-10-06T07:50:21.642Z,64.11
2022-10-06T07:51:21.628Z,64.11
2022-10-06T07:52:21.631Z,64.01
2022-10-06T07:53:21.574Z,64.21
2022-10-06T07:54:26.530Z,64.28
2022-10-06T07:55:22.727Z,64.21
2022-10-06T07:56:22.408Z,64.11
2022-10-06T07:57:21.559Z,64.31
2022-10-06T07:58:21.563Z,64.31
2022-10-06T07:59:24.252Z,64.41
2022-10-06T08:00:21.684Z,64.31
2022-10-06T08:01:21.706Z,64.21
2022-10-06T08:02:21.484Z,64.31
2022-10-06T08:03:21.546Z,64.31
2022-10-06T08:04:21.902Z,64.01
2022-10-06T08:05:21.449Z,64.21
2022-10-06T08:06:21.460Z,64.21
2022-10-06T08:07:21.630Z,64.21
2022-10-06T08:08:21.359Z,64.28
2022-10-06T08:09:21.367Z,64.21
2022-10-06T08:10:21.879Z,64.21
2022-10-06T08:11:21.568Z,64.21
2022-10-06T08:12:53.865Z,64.21
2022-10-06T08:13:54.062Z,64.21
2022-10-06T08:14:53.989Z,64.21
2022-10-06T08:15:54.022Z,64.11
2022-10-06T08:16:53.954Z,64.18
2022-10-06T08:17:54.135Z,64.18
2022-10-06T08:18:53.690Z,64.18
2022-10-06T08:19:53.966Z,64.07
2022-10-06T08:20:53.657Z,64.07
2022-10-06T08:21:53.683Z,64.07
2022-10-06T08:22:53.778Z,64.07
2022-10-06T08:23:53.718Z,64.18
2022-10-06T08:25:05.357Z,63.98
2022-10-06T08:25:54.734Z,63.98
2022-10-06T08:26:53.561Z,64.07
2022-10-06T08:27:53.790Z,63.98
2022-10-06T08:28:53.784Z,63.98
2022-10-06T08:29:53.766Z,63.98
2022-10-06T08:30:53.515Z,64.07
2022-10-06T08:31:53.716Z,64.07
2022-10-06T08:32:53.486Z,64.07
2022-10-06T08:33:53.627Z,63.88
2022-10-06T08:34:53.842Z,63.88
2022-10-06T08:35:55.416Z,64.48
2022-10-06T08:37:18.698Z,64.78
2022-10-06T08:37:54.866Z,64.67
2022-10-06T08:38:53.400Z,64.78
2022-10-06T08:39:54.292Z,64.87
2022-10-06T08:40:53.548Z,64.94
2022-10-06T08:41:53.410Z,64.94
2022-10-06T08:42:53.354Z,64.94
2022-10-06T08:43:53.447Z,64.94
2022-10-06T08:44:53.529Z,64.94
2022-10-06T08:46:53.356Z,64.84
2022-10-06T08:47:53.371Z,64.75
2022-10-06T08:48:53.257Z,64.75
2022-10-06T08:49:53.546Z,64.64
2022-10-06T08:50:54.071Z,64.45
2022-10-06T08:51:53.270Z,64.54
2022-10-06T08:52:53.350Z,64.45
2022-10-06T08:53:53.406Z,64.22
2022-10-06T08:54:53.190Z,64.31
2022-10-06T08:55:53.286Z,64.42
2022-10-06T08:56:53.140Z,64.91
2022-10-06T08:57:53.259Z,64.51
2022-10-06T08:58:53.220Z,64.31
2022-10-06T08:59:53.750Z,64.31
2022-10-06T09:00:53.211Z,64.12
2022-10-06T09:01:53.314Z,64.22
2022-10-06T09:02:53.060Z,64.22
2022-10-06T09:03:53.464Z,63.92
2022-10-06T09:04:53.174Z,64.01
2022-10-06T09:05:53.149Z,64.01
2022-10-06T09:06:53.005Z,63.89
2022-10-06T09:07:53.110Z,63.98
2022-10-06T09:08:52.989Z,63.98
2022-10-06T09:09:53.876Z,63.89
2022-10-06T09:10:53.374Z,63.89
2022-10-06T09:11:53.051Z,63.69
2022-10-06T09:12:52.920Z,63.79
2022-10-06T09:13:53.122Z,63.69
2022-10-06T09:14:53.381Z,63.69
2022-10-06T09:15:53.431Z,63.59
2022-10-06T09:16:52.955Z,63.59
2022-10-06T09:17:53.032Z,63.59
2022-10-06T09:19:09.306Z,63.69
2022-10-06T09:19:54.306Z,63.59
2022-10-06T09:20:52.817Z,63.59
2022-10-06T09:21:53.045Z,63.46
2022-10-06T09:22:52.947Z,63.46
2022-10-06T09:23:52.915Z,63.46
2022-10-06T09:24:52.832Z,63.56
2022-10-06T09:25:52.899Z,63.46
2022-10-06T09:26:52.736Z,63.95
2022-10-06T09:27:53.016Z,63.85
2022-10-06T09:28:53.253Z,63.66
2022-10-06T09:29:53.118Z,63.85
2022-10-06T09:30:55.390Z,63.66
2022-10-06T09:31:53.054Z,63.56
2022-10-06T09:32:52.646Z,63.46
2022-10-06T09:33:52.814Z,63.36
2022-10-06T09:34:52.706Z,63.26
2022-10-06T09:35:52.763Z,63.26
2022-10-06T09:36:52.595Z,63.13
2022-10-06T09:37:52.849Z,63.13
2022-10-06T09:38:52.560Z,63.13
2022-10-06T09:39:52.741Z,63.23
2022-10-06T09:40:52.612Z,63.23
2022-10-06T09:41:52.706Z,63.13
2022-10-06T09:42:52.515Z,63.13
2022-10-06T09:43:52.546Z,63.13
2022-10-06T09:44:52.499Z,63.13
2022-10-06T09:45:52.563Z,63.13
2022-10-06T09:46:52.598Z,63.03
2022-10-06T09:47:52.606Z,63.13
2022-10-06T09:48:52.448Z,63.03
2022-10-06T09:49:52.636Z,62.93
2022-10-06T09:50:52.428Z,62.93
2022-10-06T09:51:52.880Z,62.93
2022-10-06T09:52:52.498Z,62.83
2022-10-06T09:53:52.435Z,62.93
2022-10-06T09:54:52.339Z,62.83
2022-10-06T09:55:52.524Z,62.83
2022-10-06T09:56:52.317Z,62.80
2022-10-06T09:57:52.486Z,62.83
2022-10-06T09:58:52.368Z,62.80
2022-10-06T09:59:52.529Z,62.70
2022-10-06T10:00:52.293Z,62.70
2022-10-06T10:01:52.362Z,62.60
2022-10-06T10:02:52.305Z,62.60
2022-10-06T10:04:53.366Z,62.60
2022-10-06T10:05:52.472Z,62.60
2022-10-06T10:06:52.166Z,62.60
2022-10-06T10:07:52.379Z,62.50
2022-10-06T10:08:52.144Z,62.50
2022-10-06T10:09:52.289Z,62.50
2022-10-06T10:10:52.198Z,62.50
2022-10-06T10:11:52.367Z,62.50
2022-10-06T10:12:52.090Z,62.50
2022-10-06T10:13:52.211Z,62.50
2022-10-06T10:14:52.053Z,62.70
2022-10-06T10:15:52.313Z,62.90
2022-10-06T10:16:53.352Z,62.80
2022-10-06T10:17:52.190Z,63.00
2022-10-06T10:18:51.991Z,63.00
2022-10-06T10:19:52.016Z,63.00
2022-10-06T10:20:52.005Z,62.70
2022-10-06T10:21:52.474Z,62.50
2022-10-06T10:22:52.168Z,62.50
2022-10-06T10:23:52.086Z,62.40
2022-10-06T10:24:51.920Z,62.40
2022-10-06T10:25:52.270Z,62.40
2022-10-06T10:26:52.242Z,62.37
2022-10-06T10:27:52.448Z,62.37
2022-10-06T10:28:51.860Z,62.57
2022-10-06T10:29:51.992Z,62.67
2022-10-06T10:30:52.340Z,62.40
2022-10-06T10:31:52.033Z,62.27
2022-10-06T10:32:52.119Z,62.18
2022-10-06T10:34:05.086Z,62.27
2022-10-06T10:34:52.777Z,62.27
2022-10-06T10:35:52.096Z,62.27
2022-10-06T10:36:51.762Z,62.18
2022-10-06T10:37:51.944Z,62.18
2022-10-06T10:38:51.818Z,62.18
2022-10-06T10:39:51.839Z,62.18
2022-10-06T10:40:51.704Z,62.18
2022-10-06T10:41:52.083Z,62.18
2022-10-06T10:42:51.667Z,62.18
2022-10-06T10:43:51.899Z,62.07
2022-10-06T10:44:51.907Z,62.18
2022-10-06T10:45:51.871Z,62.18
2022-10-06T10:46:51.666Z,62.18
2022-10-06T10:47:51.702Z,62.18
2022-10-06T10:48:51.575Z,62.27
2022-10-06T10:49:51.962Z,62.37
2022-10-06T10:50:51.782Z,62.37
2022-10-06T10:51:52.354Z,62.37
2022-10-06T10:52:51.537Z,62.67
2022-10-06T10:53:51.529Z,62.57
2022-10-06T10:54:51.523Z,62.37
2022-10-06T10:55:55.519Z,62.37
2022-10-06T10:56:51.583Z,62.18
2022-10-06T10:57:51.694Z,62.27
2022-10-06T10:58:51.444Z,62.27
2022-10-06T10:59:51.598Z,62.27
2022-10-06T11:00:51.467Z,62.15
2022-10-06T11:01:51.579Z,62.24
2022-10-06T11:02:51.558Z,62.15
2022-10-06T11:03:51.516Z,62.15
2022-10-06T11:04:51.369Z,62.24
2022-10-06T11:05:51.507Z,62.34
2022-10-06T11:06:51.341Z,62.24
2022-10-06T11:07:51.418Z,62.24
2022-10-06T11:08:51.537Z,62.24
2022-10-06T11:09:51.418Z,62.24
2022-10-06T11:10:51.291Z,62.24
2022-10-06T11:11:52.441Z,62.24
2022-10-06T11:12:51.264Z,62.54
2022-10-06T11:13:51.422Z,62.54
2022-10-06T11:14:51.321Z,62.34
2022-10-06T11:15:51.638Z,62.24
2022-10-06T11:16:51.214Z,62.24
2022-10-06T11:17:51.479Z,62.24
2022-10-06T11:18:51.164Z,62.15
2022-10-06T11:19:51.241Z,62.15
2022-10-06T11:20:51.291Z,62.15
2022-10-06T11:21:51.385Z,62.05
2022-10-06T11:22:51.129Z,62.15
2022-10-06T11:23:51.340Z,62.15
2022-10-06T11:24:51.113Z,62.05
2022-10-06T11:25:51.271Z,62.15
2022-10-06T11:26:51.220Z,62.15
2022-10-06T11:27:51.391Z,62.15
2022-10-06T11:28:51.036Z,62.05
2022-10-06T11:29:51.249Z,62.15
2022-10-06T11:30:51.010Z,62.05
2022-10-06T11:31:51.352Z,62.05
2022-10-06T11:32:51.141Z,62.15
2022-10-06T11:33:51.154Z,62.15
2022-10-06T11:34:50.954Z,62.02
2022-10-06T11:35:51.047Z,62.02
2022-10-06T11:36:50.924Z,62.02
2022-10-06T11:37:51.045Z,62.02
2022-10-06T11:38:51.132Z,62.12
2022-10-06T11:39:51.040Z,62.02
2022-10-06T11:40:50.867Z,62.02
2022-10-06T11:41:51.890Z,61.91
2022-10-06T11:42:50.850Z,62.21
2022-10-06T11:43:51.042Z,62.12
2022-10-06T11:44:50.970Z,61.91
2022-10-06T11:45:52.005Z,61.91
2022-10-06T11:46:50.779Z,61.91
2022-10-06T11:47:50.921Z,62.12
2022-10-06T11:48:50.741Z,62.12
2022-10-06T11:49:51.027Z,62.02
2022-10-06T11:50:50.857Z,61.91
2022-10-06T11:51:51.597Z,61.91
2022-10-06T11:52:50.689Z,61.91
2022-10-06T11:53:50.789Z,61.91
2022-10-06T11:54:50.670Z,61.82
2022-10-06T11:55:50.776Z,61.91
2022-10-06T11:56:50.743Z,61.91
2022-10-06T11:57:51.294Z,62.12
2022-10-06T11:58:50.604Z,62.12
2022-10-06T11:59:50.837Z,62.02
2022-10-06T12:00:50.590Z,62.12
2022-10-06T12:01:51.033Z,62.02
2022-10-06T12:02:50.838Z,61.91
2022-10-06T12:03:50.720Z,61.91
2022-10-06T12:04:50.517Z,61.91
2022-10-06T12:05:56.629Z,61.91
2022-10-06T12:06:51.514Z,61.91
2022-10-06T12:07:50.772Z,61.91
2022-10-06T12:08:50.581Z,61.91
2022-10-06T12:09:52.765Z,61.91
2022-10-06T12:10:50.495Z,61.91
2022-10-06T12:11:50.541Z,61.91
2022-10-06T12:13:05.690Z,61.82
2022-10-06T12:15:01.958Z,61.91
2022-10-06T12:17:05.486Z,62.02
2022-10-06T12:17:12.818Z,61.91
2022-10-06T12:17:51.520Z,61.91
2022-10-06T12:18:50.352Z,61.91
2022-10-06T12:19:50.681Z,61.89
2022-10-06T12:20:50.329Z,61.91
2022-10-06T12:21:50.455Z,62.02
2022-10-06T12:22:50.281Z,62.02
2022-10-06T12:23:50.585Z,61.91
2022-10-06T12:24:50.257Z,61.91
2022-10-06T12:25:50.459Z,61.91
2022-10-06T12:26:50.289Z,61.89
2022-10-06T12:27:50.447Z,62.08
2022-10-06T12:28:50.194Z,62.29
2022-10-06T12:29:50.288Z,62.08
2022-10-06T12:30:50.218Z,61.99
2022-10-06T12:31:50.404Z,61.99
2022-10-06T12:32:50.204Z,62.08
2022-10-06T12:33:50.327Z,62.08
2022-10-06T12:34:50.150Z,61.99
2022-10-06T12:35:50.209Z,62.08
2022-10-06T12:36:50.068Z,62.18
2022-10-06T12:37:54.195Z,62.08
2022-10-06T12:38:50.145Z,62.29
2022-10-06T12:39:50.189Z,62.29
2022-10-06T12:40:50.038Z,62.29
2022-10-06T12:41:50.300Z,62.08
2022-10-06T12:42:49.999Z,62.08
2022-10-06T12:43:50.485Z,62.18
2022-10-06T12:44:49.995Z,62.38
2022-10-06T12:45:50.139Z,62.29
2022-10-06T12:46:49.954Z,62.29
2022-10-06T12:47:50.038Z,62.08
2022-10-06T12:48:49.906Z,62.08
2022-10-06T12:49:50.942Z,62.08
2022-10-06T12:50:49.920Z,61.99
2022-10-06T12:51:52.359Z,61.99
2022-10-06T12:52:49.882Z,61.99
2022-10-06T12:53:50.101Z,61.99
2022-10-06T12:54:49.819Z,61.99
2022-10-06T12:55:50.749Z,61.99